Flight Track Log - Related Links

Times and Time Zones

All times are in EDT time to prevent confusion due to time zone crossing. See the UPS2910 flight status page for this flight to view local times or setup timezone preferences in your user account.

Time Position Orientation Groundspeed Altitude Reporting Facility
EDT Latitude Longitude Course Direction KTS MPH feet Rate Location/Type
Fri 04:08:55 PM 38.2181 -85.7636 218° Southwest 180 207 36,000  Level Indianapolis Center
Fri 04:11:59 PM 38.2127 -85.9580 220° Southwest 300 345 10,300 -3,416 Descending FlightAware ADS-B
Fri 04:14:00 PM 38.2612 -85.8887 218° Southwest  Level FlightAware Approximate
Fri 04:14:34 PM 38.1062 -86.0773 257° West 388 447 16,700  Level FlightAware ADS-B (EPWR / WRO)
Fri 04:15:33 PM 38.0467 -86.3425 265° West 381 438 19,900 2,914 Climbing FlightAware ADS-B (EPWR / WRO)
Fri 04:16:19 PM 38.0315 -86.4346 237° Southwest 395 455 21,800 2,588 Climbing FlightAware ADS-B (EPWR / WRO)
Fri 04:18:06 PM 37.9330 -86.6300 261° West 378 435 26,500 1,898 Climbing FlightAware ADS-B (EPWR / WRO)
Fri 04:22:51 PM 37.9802 -87.2908 275° West 411 473 34,200 1,581 Climbing FlightAware ADS-B
Fri 04:23:21 PM 37.9866 -87.3862 275° West 413 475 34,800 1,286 Climbing FlightAware ADS-B
Fri 04:24:15 PM 37.9959 -87.5173 275° West 412 474 36,000 238 Climbing FlightAware ADS-B
Fri 04:28:23 PM 38.0357 -88.1138 275° West 408 470 36,000  Level FlightAware ADS-B
Fri 04:30:13 PM 38.0524 -88.3745 275° West 409 471 36,000  Level FlightAware ADS-B
Fri 04:30:54 PM 38.0584 -88.4685 275° West 407 468 36,000  Level FlightAware ADS-B
Fri 04:31:24 PM 38.0619 -88.5280 274° West 407 468 36,000  Level FlightAware ADS-B
Fri 04:33:04 PM 38.0765 -88.7739 274° West 408 470 36,000  Level FlightAware ADS-B
Fri 04:34:33 PM 38.0890 -88.9914 274° West 408 470 36,000 50 Level FlightAware ADS-B
Fri 04:35:04 PM 38.0934 -89.0674 274° West 407 468 36,100  Climbing FlightAware ADS-B
Fri 04:35:34 PM 38.0974 -89.1389 274° West 407 468 36,000 -87 Descending FlightAware ADS-B
Fri 04:36:13 PM 38.1018 -89.2209 274° West 406 467 36,000  Level FlightAware ADS-B
Fri 04:36:44 PM 38.1064 -89.3028 273° West 402 463 36,000  Level FlightAware ADS-B
Fri 04:37:34 PM 38.1127 -89.4211 274° West 398 458 36,000  Level FlightAware ADS-B
Fri 04:38:39 PM 38.1189 -89.5353 274° West 395 455 36,000 -47 Level Kansas City Center
Fri 04:39:42 PM 38.1275 -89.6978 274° West 384 442 35,900 -49 Descending Kansas City Center
Fri 04:40:42 PM 38.1342 -89.8294 274° West 375 432 35,900  Level Kansas City Center
Fri 04:41:46 PM 38.1400 -89.9592 273° West 371 427 35,900 48 Level Kansas City Center
Fri 04:42:47 PM 38.1458 -90.0897 273° West 370 426 36,000 48 Climbing Kansas City Center
Fri 04:43:51 PM 38.1525 -90.2231 274° West 377 434 36,000  Level Kansas City Center
Fri 04:44:51 PM 38.1589 -90.3597 273° West 383 441 36,000  Level Kansas City Center
Fri 04:45:53 PM 38.1664 -90.5239 273° West 385 443 36,000  Level Kansas City Center
Fri 04:46:57 PM 38.1722 -90.6572 273° West 379 436 36,000  Level Kansas City Center
Fri 04:47:57 PM 38.1778 -90.7933 273° West 375 432 36,000  Level Kansas City Center
Fri 04:49:01 PM 38.1828 -90.9211 273° West 375 432 36,000  Level Kansas City Center
Fri 04:50:01 PM 38.1881 -91.0539 273° West 375 432 36,000  Level Kansas City Center
Fri 04:51:05 PM 38.1933 -91.1867 273° West 376 433 36,000  Level Kansas City Center
Fri 04:52:06 PM 38.1983 -91.3183 273° West 375 432 36,000 -48 Level Kansas City Center
Fri 04:53:10 PM 38.2044 -91.4744 273° West 371 427 35,900  Descending Kansas City Center
Fri 04:54:11 PM 38.2086 -91.6033 272° West 368 423 36,000 49 Climbing Kansas City Center
Fri 04:55:12 PM 38.2128 -91.7328 272° West 367 422 36,000  Level Kansas City Center
Fri 04:56:16 PM 38.2172 -91.8642 273° West 369 425 36,000  Level Kansas City Center
Fri 04:57:17 PM 38.2208 -91.9958 272° West 371 427 36,000  Level Kansas City Center
Fri 04:58:20 PM 38.2264 -92.1553 273° West 374 430 36,000  Level Kansas City Center
Fri 04:59:21 PM 38.2303 -92.2878 272° West 376 433 36,000  Level Kansas City Center
Fri 05:00:24 PM 38.2336 -92.4211 272° West 379 436 36,000  Level Kansas City Center
Fri 05:01:24 PM 38.2375 -92.5550 272° West 380 437 36,000  Level Kansas City Center
Fri 05:03:29 PM 38.2444 -92.8514 272° West 382 440 36,000  Level Kansas City Center
Fri 05:09:24 PM 38.2611 -93.6596 272° West 397 457 36,000  Level FlightAware ADS-B (EGNC / CAX)
Fri 05:10:29 PM 38.2638 -93.8166 271° West 399 459 36,000  Level FlightAware ADS-B (EGNC / CAX)
Fri 05:11:08 PM 38.2652 -93.9087 271° West 399 459 36,000  Level FlightAware ADS-B (EGNC / CAX)
Fri 05:12:11 PM 38.2674 -94.0549 271° West 399 459 36,000  Level FlightAware ADS-B (EGNC / CAX)
Fri 05:13:08 PM 38.2693 -94.1886 271° West 400 460 36,000  Level FlightAware ADS-B (EGNC / CAX)
Fri 05:15:43 PM 38.2770 -94.5544 275° West 406 467 36,000  Level FlightAware ADS-B (EGNC / CAX)
Fri 05:16:21 PM 38.2820 -94.6347 275° West 407 468 36,000  Level FlightAware ADS-B (EGNC / CAX)
Fri 05:18:11 PM 38.2988 -94.9080 275° West 411 473 36,000  Level FlightAware ADS-B (EGNC / CAX)
Fri 05:20:07 PM 38.3159 -95.1890 274° West 415 478 36,000  Level FlightAware ADS-B (EGNC / CAX)
Fri 05:20:50 PM 38.3220 -95.2923 274° West 415 478 36,000  Level FlightAware ADS-B (EGNC / CAX)
Fri 05:21:45 PM 38.3280 -95.3942 272° West 413 475 36,000  Level FlightAware ADS-B (EGNC / CAX)
Fri 05:22:31 PM 38.3285 -95.5062 267° West 410 472 36,000  Level FlightAware ADS-B (EGNC / CAX)
Fri 05:23:08 PM 38.3247 -95.6264 268° West 409 471 36,000  Level FlightAware ADS-B (EGNC / CAX)
Fri 05:24:05 PM 38.3197 -95.7600 267° West 410 472 36,000  Level FlightAware ADS-B (EGNC / CAX)
Fri 05:26:49 PM 38.3045 -96.1645 267° West 423 487 36,000  Level FlightAware ADS-B (EGNC / CAX)
Fri 05:29:07 PM 38.2909 -96.5056 267° West 420 483 36,000 -28 Level FlightAware ADS-B (EGNC / CAX)
Fri 05:30:24 PM 38.2839 -96.6644 267° West 419 482 35,900  Descending Kansas City Center
Fri 05:31:25 PM 38.2778 -96.8067 267° West 419 482 36,000 49 Climbing Kansas City Center
Fri 05:32:27 PM 38.2694 -96.9850 267° West 421 484 36,000  Level Kansas City Center
Fri 05:33:32 PM 38.2628 -97.1331 267° West 421 484 36,000  Level Kansas City Center
Fri 05:34:32 PM 38.2556 -97.2800 266° West 420 483 36,000 -50 Level Kansas City Center
Fri 05:35:32 PM 38.2483 -97.4261 266° West 419 482 35,900  Descending Kansas City Center
Fri 05:36:34 PM 38.2408 -97.5717 266° West 418 481 36,000 48 Climbing Kansas City Center
Fri 05:37:37 PM 38.2317 -97.7467 266° West 418 481 36,000  Level Kansas City Center
Fri 05:38:41 PM 38.2236 -97.8922 266° West 418 481 36,000  Level Kansas City Center
Fri 05:39:43 PM 38.2158 -98.0436 266° West 419 482 36,000  Level Kansas City Center
Fri 05:40:43 PM 38.2081 -98.1844 266° West 419 482 36,000  Level Kansas City Center
Fri 05:41:44 PM 38.1997 -98.3297 266° West 418 481 36,000 -48 Level Kansas City Center
Fri 05:42:48 PM 38.1892 -98.5081 266° West 416 479 35,900 -48 Descending Kansas City Center
Fri 05:43:48 PM 38.1808 -98.6467 266° West 413 475 35,900 48 Level Kansas City Center
Fri 05:44:53 PM 38.1719 -98.7903 266° West 411 473 36,000 48 Climbing Kansas City Center
Fri 05:45:53 PM 38.1628 -98.9361 265° West 413 475 36,000  Level Kansas City Center
Fri 05:46:57 PM 38.1533 -99.0833 265° West 418 481 36,000 677 Level Kansas City Center
Fri 05:47:57 PM 38.1419 -99.2603 265° West 419 482 37,400 968 Climbing Kansas City Center
Fri 05:49:01 PM 38.1325 -99.4058 265° West 417 480 38,000 290 Climbing Kansas City Center
Fri 05:50:01 PM 38.1228 -99.5472 265° West 412 474 38,000  Level Kansas City Center
Fri 05:51:05 PM 38.1111 -99.7117 265° West 419 482 38,000  Level Kansas City Center
Fri 05:52:07 PM 38.1014 -99.8536 265° West 420 483 38,000  Level Kansas City Center
Fri 05:53:09 PM 38.0894 -100.0178 265° West 420 483 38,000  Level Kansas City Center
Fri 05:54:09 PM 38.0794 -100.1572 265° West 418 481 38,000  Level Kansas City Center
Fri 05:55:14 PM 38.0672 -100.3200 265° West 417 480 38,000  Level Kansas City Center
Fri 05:56:15 PM 38.0567 -100.4608 265° West 418 481 38,000  Level Kansas City Center
Fri 05:57:15 PM 38.0442 -100.6236 264° West 418 481 38,000  Level Kansas City Center
Fri 05:58:19 PM 38.0333 -100.7619 264° West 417 480 38,000  Level Kansas City Center
Fri 05:59:20 PM 38.0206 -100.9228 264° West 416 479 38,000  Level Kansas City Center
Fri 06:00:21 PM 38.0092 -101.0608 264° West 418 481 38,000  Level Kansas City Center
Fri 06:01:25 PM 37.9961 -101.2211 264° West 416 479 38,000  Level Kansas City Center
Fri 06:02:26 PM 37.9844 -101.3592 264° West 415 478 38,000  Level Kansas City Center
Fri 06:03:30 PM 37.9708 -101.5197 264° West 414 476 38,000  Level Kansas City Center
Fri 06:04:31 PM 37.9589 -101.6572 264° West 413 475 38,000  Level Kansas City Center
Fri 06:05:32 PM 37.9450 -101.8172 264° West 412 474 38,000  Level Kansas City Center
Fri 06:06:15 PM 37.9367 -101.9067 263° West 412 474 38,000  Level Denver Center
Fri 06:07:17 PM 37.9228 -102.0672 264° West 412 474 38,000  Level Denver Center
Fri 06:08:19 PM 37.9086 -102.2053 263° West 412 474 38,000  Level Denver Center
Fri 06:09:21 PM 37.8944 -102.3678 264° West 415 478 38,000  Level Denver Center
Fri 06:15:23 PM 37.7815 -103.1647 259° West 410 472 38,000 15 Level FlightAware ADS-B (KEIK)
Fri 06:16:13 PM 37.7508 -103.3531 258° West 406 467 38,100  Climbing FlightAware ADS-B (KEIK)
Fri 06:17:56 PM 37.7121 -103.5892 259° West 410 472 38,000 -45 Descending FlightAware ADS-B (KEIK)
Fri 06:18:26 PM 37.7000 -103.6631 258° West 414 476 38,000  Level FlightAware ADS-B (KEIK)
Fri 06:19:11 PM 37.6831 -103.7648 258° West 416 479 38,000  Level FlightAware ADS-B (KEIK)
Fri 06:19:43 PM 37.6727 -103.8274 258° West 419 482 38,000  Level FlightAware ADS-B (KEIK)
Fri 06:20:50 PM 37.6442 -103.9959 258° West 420 483 38,000  Level FlightAware ADS-B (KEIK)
Fri 06:21:31 PM 37.6266 -104.1003 258° West 418 481 38,000  Level FlightAware ADS-B (KEIK)
Fri 06:22:08 PM 37.6112 -104.1914 258° West 414 476 38,000  Level FlightAware ADS-B (KEIK)
Fri 06:23:14 PM 37.5876 -104.3261 258° West 407 468 38,000  Level FlightAware ADS-B (KEIK)
Fri 06:23:44 PM 37.5730 -104.4124 258° West 403 464 38,000  Level FlightAware ADS-B (KEIK)
Fri 06:24:23 PM 37.5600 -104.4881 258° West 398 458 38,000  Level FlightAware ADS-B (KEIK)
Fri 06:24:57 PM 37.5440 -104.5806 258° West 395 455 38,000  Level FlightAware ADS-B (KEIK)
Fri 06:25:42 PM 37.5266 -104.6790 258° West 397 457 38,000  Level FlightAware ADS-B (KEIK)
Fri 06:26:12 PM 37.5157 -104.7416 257° West 398 458 38,000  Level FlightAware ADS-B (KEIK)
Fri 06:26:52 PM 37.4982 -104.8398 258° West 402 463 38,000  Level FlightAware ADS-B (KEIK)
Fri 06:27:23 PM 37.4869 -104.9041 257° West 405 466 38,000  Level FlightAware ADS-B (KEIK)
Fri 06:28:01 PM 37.4700 -104.9990 257° West 412 474 38,000  Level FlightAware ADS-B (KEIK)
Fri 06:28:32 PM 37.4574 -105.0700 257° West 409 471 38,000  Level FlightAware ADS-B (KEIK)
Fri 06:29:06 PM 37.4434 -105.1493 258° West 409 471 38,000  Level FlightAware ADS-B (KEIK)
Fri 06:29:40 PM 37.4312 -105.2192 257° West 404 465 38,000  Level FlightAware ADS-B (KEIK)
Fri 06:30:12 PM 37.4176 -105.2948 257° West 399 459 38,000  Level FlightAware ADS-B (KEIK)
Fri 06:30:48 PM 37.4017 -105.3821 257° West 393 452 38,000  Level FlightAware ADS-B (KGUC)
Fri 06:31:18 PM 37.3892 -105.4480 257° West 397 457 38,000  Level FlightAware ADS-B (KGUC)
Fri 06:31:48 PM 37.3766 -105.5168 257° West 405 466 38,000  Level FlightAware ADS-B (KGUC)
Fri 06:32:29 PM 37.3599 -105.6084 257° West 411 473 38,000  Level FlightAware ADS-B (KGUC)
Fri 06:32:59 PM 37.3469 -105.6801 257° West 414 476 38,000  Level FlightAware ADS-B (KGUC)
Fri 06:33:29 PM 37.3343 -105.7481 257° West 411 473 38,000  Level FlightAware ADS-B (KGUC)
Fri 06:34:08 PM 37.3187 -105.8317 257° West 414 476 38,000  Level FlightAware ADS-B (KGUC)
Fri 06:34:38 PM 37.3040 -105.9115 257° West 412 474 38,000  Level FlightAware ADS-B (KGUC)
Fri 06:35:08 PM 37.2911 -105.9804 257° West 405 466 38,000  Level FlightAware ADS-B (KGUC)
Fri 06:35:39 PM 37.2782 -106.0502 257° West 404 465 38,000  Level FlightAware ADS-B (KGUC)
Fri 06:36:18 PM 37.2623 -106.1339 256° West 407 468 38,000  Level FlightAware ADS-B (KGUC)
Fri 06:36:49 PM 37.2491 -106.2009 257° West 406 467 38,000  Level FlightAware ADS-B (KGUC)
Fri 06:37:19 PM 37.2350 -106.2768 257° West 404 465 38,000  Level FlightAware ADS-B (KGUC)
Fri 06:37:49 PM 37.2221 -106.3465 257° West 406 467 38,000  Level FlightAware ADS-B (KGUC)
Fri 06:38:19 PM 37.2088 -106.4151 257° West 407 468 38,000  Level FlightAware ADS-B (KGUC)
Fri 06:38:59 PM 37.1940 -106.4940 257° West 405 466 38,000  Level FlightAware ADS-B (KGUC)
Fri 06:39:37 PM 37.1749 -106.5947 256° West 407 468 38,000  Level FlightAware ADS-B (KGUC)
Fri 06:40:11 PM 37.1603 -106.6686 256° West 410 472 38,000  Level FlightAware ADS-B
Fri 06:40:42 PM 37.1469 -106.7364 256° West 412 474 38,000  Level FlightAware ADS-B
Fri 06:41:12 PM 37.1321 -106.8105 256° West 412 474 38,000  Level FlightAware ADS-B
Fri 06:41:42 PM 37.1188 -106.8818 257° West 412 474 38,000  Level FlightAware ADS-B
Fri 06:42:12 PM 37.1054 -106.9510 256° West 402 463 38,000  Level FlightAware ADS-B
Fri 06:42:43 PM 37.0916 -107.0179 255° West 393 452 38,000  Level FlightAware ADS-B
Fri 06:43:18 PM 37.0759 -107.0974 256° West 392 451 38,000  Level FlightAware ADS-B (KGUC)
Fri 06:43:49 PM 37.0626 -107.1633 256° West 396 456 38,000  Level FlightAware ADS-B (KGUC)
Fri 06:44:19 PM 37.0495 -107.2289 256° West 394 453 38,000  Level FlightAware ADS-B (KGUC)
Fri 06:44:49 PM 37.0361 -107.2967 256° West 397 457 38,000  Level FlightAware ADS-B (KGUC)
Fri 06:45:23 PM 37.0207 -107.3738 256° West 401 461 38,000  Level FlightAware ADS-B
Fri 06:45:53 PM 37.0070 -107.4413 256° West 401 461 38,000  Level FlightAware ADS-B
Fri 06:46:26 PM 36.9924 -107.5146 256° West 399 459 38,000  Level FlightAware ADS-B (KGUC)
Fri 06:47:04 PM 36.9757 -107.5978 256° West 399 459 38,000  Level FlightAware ADS-B
Fri 06:47:36 PM 36.9612 -107.6696 256° West 401 461 38,000  Level FlightAware ADS-B
Fri 06:48:06 PM 36.9487 -107.7305 256° West 399 459 38,000  Level FlightAware ADS-B
Fri 06:48:39 PM 36.9328 -107.8097 256° West 398 458 38,000  Level FlightAware ADS-B (KGUC)
Fri 06:49:09 PM 36.9196 -107.8749 256° West 398 458 38,000  Level FlightAware ADS-B (KGUC)
Fri 06:49:41 PM 36.9042 -107.9489 256° West 397 457 38,000  Level FlightAware ADS-B (KGUC)
Fri 06:50:11 PM 36.8903 -108.0154 255° West 396 456 38,000  Level FlightAware ADS-B (KGUC)
Fri 06:50:46 PM 36.8740 -108.0938 256° West 395 455 38,000  Level FlightAware ADS-B
Fri 06:51:21 PM 36.8584 -108.1697 255° West 395 455 38,000  Level FlightAware ADS-B (KGUC)
Fri 06:51:51 PM 36.8448 -108.2352 255° West 394 453 38,000  Level FlightAware ADS-B (KGUC)
Fri 06:52:21 PM 36.8311 -108.3011 256° West 393 452 38,000  Level FlightAware ADS-B (KGUC)
Fri 06:52:51 PM 36.8173 -108.3673 255° West 394 453 38,000  Level FlightAware ADS-B (KGUC)
Fri 06:53:21 PM 36.8035 -108.4331 256° West 393 452 38,000  Level FlightAware ADS-B (KGUC)
Fri 06:53:51 PM 36.7900 -108.4985 255° West 393 452 38,000  Level FlightAware ADS-B (KGUC)
Fri 06:54:30 PM 36.7716 -108.5843 255° West 392 451 38,000  Level FlightAware ADS-B (KGUC)
Fri 06:55:11 PM 36.7526 -108.6733 255° West 390 449 38,000  Level FlightAware ADS-B
Fri 06:55:50 PM 36.7350 -108.7561 255° West 390 449 38,000  Level FlightAware ADS-B
Fri 06:56:20 PM 36.7209 -108.8223 255° West 389 448 38,000  Level FlightAware ADS-B (KGUC)
Fri 06:56:51 PM 36.7070 -108.8866 255° West 391 450 38,000  Level FlightAware ADS-B (KGUC)
Fri 06:57:21 PM 36.6936 -108.9472 255° West 390 449 38,000  Level FlightAware ADS-B (KGUC)
Fri 06:57:51 PM 36.6787 -109.0169 255° West 389 448 38,000  Level FlightAware ADS-B (KGUC)
Fri 06:58:21 PM 36.6644 -109.0830 255° West 388 447 38,000  Level FlightAware ADS-B (KGUC)
Fri 06:58:51 PM 36.6504 -109.1475 255° West 389 448 38,000  Level FlightAware ADS-B (KGUC)
Fri 06:59:29 PM 36.6326 -109.2292 255° West 390 449 38,000  Level FlightAware ADS-B (KGUC)
Fri 06:59:59 PM 36.6186 -109.2937 255° West 389 448 38,000  Level FlightAware ADS-B (KGUC)
Fri 07:00:29 PM 36.6057 -109.3532 255° West 390 449 38,000  Level FlightAware ADS-B (KGUC)
Fri 07:00:59 PM 36.5901 -109.4246 255° West 392 451 38,000  Level FlightAware ADS-B (KGUC)
Fri 07:02:06 PM 36.5578 -109.5690 255° West 391 450 38,000  Level FlightAware ADS-B
Fri 07:03:09 PM 36.5275 -109.7057 254° West 391 450 38,000  Level FlightAware ADS-B
Fri 07:04:11 PM 36.4976 -109.8398 254° West 391 450 38,000  Level FlightAware ADS-B
Fri 07:05:15 PM 36.4684 -109.9711 254° West 390 449 38,000  Level FlightAware ADS-B
Fri 07:06:14 PM 36.4397 -110.0969 254° West 387 445 38,000  Level FlightAware ADS-B
Fri 07:06:50 PM 36.4206 -110.1806 254° West 385 443 38,000 -91 Level FlightAware ADS-B (KGUC)
Fri 07:07:20 PM 36.4060 -110.2448 254° West 384 442 37,900 -85 Descending FlightAware ADS-B
Fri 07:08:01 PM 36.3868 -110.3303 255° West 381 438 37,900  Level FlightAware ADS-B (KGUC)
Fri 07:08:31 PM 36.3775 -110.3715 254° West 380 437 37,900 45 Level FlightAware ADS-B (KGUC)
Fri 07:10:14 PM 36.3225 -110.6087 254° West 382 440 38,000 43 Climbing FlightAware ADS-B (KGUC)
Fri 07:10:50 PM 36.3049 -110.6840 254° West 383 441 38,000  Level FlightAware ADS-B (KGUC)
Fri 07:11:41 PM 36.2800 -110.7912 254° West 388 447 38,000  Level FlightAware ADS-B (KGUC)
Fri 07:12:32 PM 36.2547 -110.8985 254° West 391 450 38,000  Level FlightAware ADS-B
Fri 07:13:32 PM 36.2237 -111.0312 254° West 395 455 38,000  Level FlightAware ADS-B
Fri 07:15:13 PM 36.1725 -111.2489 253° West 392 451 38,000 -33 Level FlightAware ADS-B
Fri 07:16:36 PM 36.1297 -111.4271 254° West 387 445 37,900  Descending FlightAware ADS-B
Fri 07:17:37 PM 36.0992 -111.5546 254° West 383 441 38,000 53 Climbing FlightAware ADS-B
Fri 07:18:29 PM 36.0730 -111.6626 253° West 382 440 38,000  Level FlightAware ADS-B
Fri 07:19:44 PM 36.0353 -111.8186 253° West 385 443 38,000  Level FlightAware ADS-B
Fri 07:21:34 PM 35.9808 -112.0403 253° West 390 449 38,000  Level FlightAware ADS-B
Fri 07:22:25 PM 35.9509 -112.1625 253° West 389 448 38,000  Level FlightAware ADS-B
Fri 07:23:48 PM 35.9097 -112.3291 253° West 389 448 38,000  Level FlightAware ADS-B
Fri 07:24:25 PM 35.8908 -112.4052 253° West 389 448 38,000  Level FlightAware ADS-B
Fri 07:27:07 PM 35.8717 -112.4819 266° West 379 436 38,000  Level FlightAware ADS-B
Fri 07:28:00 PM 35.8363 -112.7562 266° West 379 436 38,000  Level FlightAware ADS-B
Fri 07:31:23 PM 35.7462 -113.2975 251° West 385 443 38,000  Level FlightAware ADS-B
Fri 07:32:14 PM 35.7192 -113.3897 251° West 383 441 38,000  Level Los Angeles Center
Fri 07:33:16 PM 35.6844 -113.5131 251° West 383 441 38,000  Level Los Angeles Center
Fri 07:34:19 PM 35.6489 -113.6372 251° West 386 444 38,000  Level Los Angeles Center
Fri 07:35:21 PM 35.6133 -113.7608 251° West 387 445 38,000  Level Los Angeles Center
Fri 07:36:23 PM 35.5708 -113.9103 251° West 387 445 38,000  Level Los Angeles Center
Fri 07:37:25 PM 35.5350 -114.0339 250° West 387 445 38,000  Level Los Angeles Center
Fri 07:38:27 PM 35.4983 -114.1564 250° West 387 445 38,000 -48 Level Los Angeles Center
Fri 07:39:29 PM 35.4578 -114.2939 250° West 384 442 37,900  Descending Los Angeles Center
Fri 07:40:31 PM 35.4225 -114.4156 250° West 380 437 38,000 96 Climbing Los Angeles Center
Fri 07:41:34 PM 35.3853 -114.5397 250° West 383 441 38,100 48 Climbing Los Angeles Center
Fri 07:42:36 PM 35.3492 -114.6647 251° West 387 445 38,100 -48 Level Los Angeles Center
Fri 07:43:38 PM 35.3111 -114.7883 249° West 387 445 38,000 -48 Descending Los Angeles Center
Fri 07:44:40 PM 35.2683 -114.9356 250° West 384 442 38,000  Level Los Angeles Center
Fri 07:45:42 PM 35.2314 -115.0572 250° West 383 441 38,000  Level Los Angeles Center
Fri 07:46:44 PM 35.1939 -115.1786 249° West 383 441 38,000  Level Los Angeles Center
Fri 07:47:47 PM 35.1603 -115.2908 250° West 383 441 38,000  Level Los Angeles Center
Fri 07:48:49 PM 35.1228 -115.4142 250° West 383 441 38,000  Level Los Angeles Center
Fri 07:49:51 PM 35.0778 -115.5625 250° West 385 443 38,000 -581 Level Los Angeles Center
Fri 07:50:53 PM 35.0392 -115.6847 249° West 386 444 36,800 -1,500 Descending Los Angeles Center
Fri 07:51:55 PM 35.0011 -115.8061 249° West 386 444 34,900 -2,081 Descending Los Angeles Center
Fri 07:52:57 PM 34.9633 -115.9336 250° West 394 453 32,500 -2,468 Descending Los Angeles Center
Fri 07:53:59 PM 34.9228 -116.0631 249° West 402 463 29,800 -2,256 Descending Los Angeles Center
Fri 07:55:02 PM 34.8561 -116.2161 242° Southwest 432 497 27,800 -1,824 Descending Los Angeles Center
Fri 07:56:04 PM 34.7872 -116.3258 233° Southwest 419 482 26,000 -1,355 Descending Los Angeles Center
Fri 07:57:06 PM 34.7161 -116.4347 232° Southwest 414 476 25,000 -774 Descending Los Angeles Center
Fri 07:58:08 PM 34.6458 -116.5378 230° Southwest 398 458 24,400 -1,258 Descending Los Angeles Center
Fri 07:59:10 PM 34.5686 -116.6331 225° Southwest 403 464 22,400 -2,180 Descending Los Angeles Center
Fri 08:04:47 PM 34.2140 -117.1745 227° Southwest 282 325 9,900 -2,112 Descending FlightAware ADS-B
Fri 08:05:25 PM 34.1798 -117.2170 225° Southwest 283 326 9,200 -1,200 Descending FlightAware ADS-B (KBNG)
Fri 08:05:52 PM 34.1538 -117.2473 224° Southwest 274 315 8,600 -1,277 Descending FlightAware ADS-B
Fri 08:06:12 PM 34.1390 -117.2648 225° Southwest 259 298 8,200 -1,500 Descending FlightAware ADS-B
Fri 08:06:32 PM 34.1200 -117.2879 227° Southwest 252 290 7,600 -1,463 Descending FlightAware ADS-B
Fri 08:06:53 PM 34.1039 -117.3084 226° Southwest 240 276 7,200 -1,350 Descending FlightAware ADS-B
Fri 08:07:12 PM 34.0892 -117.3264 225° Southwest 225 259 6,700 -1,500 Descending FlightAware ADS-B
Fri 08:07:33 PM 34.0768 -117.3417 226° Southwest 210 242 6,200 -1,247 Descending FlightAware ADS-B
Fri 08:08:29 PM 34.0571 -117.3958 263° West 162 186 5,100 -1,481 Descending FlightAware ADS-B
Fri 08:08:54 PM 34.0551 -117.4191 272° West 166 191 4,200 -1,548 Descending FlightAware ADS-B
Fri 08:09:31 PM 34.0558 -117.4419 272° West 172 198 3,500 -1,152 Descending Los Angeles Center
Fri 08:10:33 PM 34.0553 -117.4933 269° West 162 186 2,300 -919 Descending Los Angeles Center
Fri 08:11:35 PM 34.0556 -117.5439 270° West 156 180 1,600 -432 Descending Los Angeles Center
Fri 08:12:38 PM 34.0569 -117.6022 272° West 154 177 1,400 -190 Descending Los Angeles Center
Fri 08:14:00 PM 34.0500 -117.6000 270° West  Level FlightAware Approximate
Fri 08:21:00 PM 34.0560 -117.6012 270° West  Level Estimated

Login

Don't have an account? Register now (free) for customized features, flight alerts, and more!